Time;durP1;ratioP1;P1;durP2;ratioP2;P2;SDS_P1;SDS_P2;PMS_P1;PMS_P2;Temp;Humidity;BMP_temperature;BMP_pressure;BME280_temperature;BME280_humidity;BME280_pressure;Samples;Min_cycle;Max_cycle;Signal;HPM_P1;HPM_P2
2024/03/28 00:01:39;;;;;;;0.75;0.40;;;10.70;53.80;;;;;;5034306;28;20083;-65
2024/03/28 00:04:23;;;;;;;1.58;0.60;;;10.70;53.90;;;;;;5041855;28;20167;-63
2024/03/28 00:07:11;;;;;;;0.80;0.50;;;10.70;53.90;;;;;;5029141;28;20046;-65
2024/03/28 00:09:56;;;;;;;1.40;0.80;;;10.70;53.90;;;;;;5051107;28;20051;-64
2024/03/28 00:12:41;;;;;;;1.70;0.70;;;10.70;53.90;;;;;;5041905;28;20533;-64
2024/03/28 00:15:26;;;;;;;1.42;0.50;;;10.70;54.00;;;;;;5033238;28;20114;-63
2024/03/28 00:18:11;;;;;;;2.72;0.50;;;10.70;54.00;;;;;;5035168;28;20059;-66
2024/03/28 00:21:00;;;;;;;0.68;0.43;;;10.70;54.10;;;;;;5034441;28;20369;-65
2024/03/28 00:23:45;;;;;;;1.65;0.55;;;10.70;54.10;;;;;;5036534;28;20039;-64
2024/03/28 00:26:31;;;;;;;0.82;0.45;;;10.70;54.10;;;;;;5039177;28;20770;-69
2024/03/28 00:29:16;;;;;;;1.52;0.50;;;10.70;54.10;;;;;;5036884;28;20044;-64
2024/03/28 00:32:00;;;;;;;2.15;0.60;;;10.70;54.20;;;;;;5041322;28;20044;-64
2024/03/28 00:34:45;;;;;;;3.35;0.77;;;10.80;54.40;;;;;;5035431;28;20049;-64
2024/03/28 00:37:29;;;;;;;0.75;0.40;;;10.70;54.80;;;;;;5032451;28;20596;-63
2024/03/28 00:40:14;;;;;;;1.75;0.73;;;10.70;54.30;;;;;;5036165;28;20089;-64
2024/03/28 00:43:03;;;;;;;2.08;1.27;;;10.70;54.40;;;;;;5038109;28;20056;-69
2024/03/28 00:45:47;;;;;;;1.73;0.80;;;10.80;54.60;;;;;;5061231;28;20067;-67
2024/03/28 00:48:32;;;;;;;1.58;0.55;;;10.70;54.40;;;;;;5033451;28;20037;-64
2024/03/28 00:51:17;;;;;;;1.08;0.40;;;10.70;54.40;;;;;;5050282;28;20144;-64
2024/03/28 00:54:02;;;;;;;2.00;0.52;;;10.80;54.70;;;;;;5051032;28;20612;-65
2024/03/28 00:56:47;;;;;;;1.23;0.30;;;10.70;54.60;;;;;;5033913;28;20195;-63
2024/03/28 00:59:33;;;;;;;0.93;0.40;;;10.80;54.80;;;;;;5034152;28;20581;-64
2024/03/28 01:02:17;;;;;;;0.50;0.50;;;10.70;54.60;;;;;;5036236;28;20079;-65
2024/03/28 01:05:02;;;;;;;0.50;0.30;;;10.80;54.90;;;;;;5032199;28;20314;-65
2024/03/28 01:07:47;;;;;;;0.52;0.30;;;10.80;54.90;;;;;;5031650;28;20056;-64
2024/03/28 01:10:32;;;;;;;1.73;0.38;;;10.70;54.70;;;;;;5034554;28;20043;-64
2024/03/28 01:13:19;;;;;;;2.08;0.40;;;10.80;54.90;;;;;;5030980;28;20134;-64
2024/03/28 01:16:04;;;;;;;1.92;0.47;;;10.70;55.30;;;;;;5039867;28;20048;-64
2024/03/28 01:18:52;;;;;;;0.52;0.20;;;10.70;54.80;;;;;;5033299;28;20576;-64
2024/03/28 01:21:37;;;;;;;0.60;0.30;;;10.70;54.80;;;;;;5062331;28;20545;-64
2024/03/28 01:24:21;;;;;;;0.45;0.28;;;10.70;54.80;;;;;;5028984;28;20067;-64
2024/03/28 01:27:06;;;;;;;1.60;0.50;;;10.70;54.80;;;;;;5032836;28;20374;-64
2024/03/28 01:29:52;;;;;;;0.95;0.30;;;10.60;54.60;;;;;;5029166;28;20467;-66
2024/03/28 01:32:37;;;;;;;0.32;0.20;;;10.60;55.30;;;;;;5032181;28;20055;-64
2024/03/28 01:35:22;;;;;;;0.63;0.22;;;10.60;54.70;;;;;;5037142;28;20600;-64
2024/03/28 01:38:07;;;;;;;1.45;0.50;;;10.60;54.70;;;;;;5041056;28;20137;-63
2024/03/28 01:40:52;;;;;;;0.68;0.25;;;10.50;54.60;;;;;;5032259;28;20037;-68
2024/03/28 01:43:39;;;;;;;0.60;0.20;;;10.50;54.50;;;;;;5033392;28;20098;-64
2024/03/28 01:46:24;;;;;;;1.15;0.60;;;10.40;54.40;;;;;;5034071;28;20090;-63
2024/03/28 01:49:13;;;;;;;0.20;0.20;;;10.40;54.50;;;;;;5024406;28;20052;-63
2024/03/28 01:51:59;;;;;;;1.08;0.40;;;10.40;54.40;;;;;;5033390;28;20071;-63
2024/03/28 01:54:48;;;;;;;2.25;0.22;;;10.30;54.30;;;;;;5031129;28;20478;-64
2024/03/28 01:57:34;;;;;;;0.20;0.17;;;10.30;54.30;;;;;;5061895;28;20052;-63
2024/03/28 02:00:20;;;;;;;1.08;0.25;;;10.20;54.20;;;;;;5033986;28;20129;-64
2024/03/28 02:03:06;;;;;;;0.63;0.30;;;10.20;54.20;;;;;;5032675;28;20109;-63
2024/03/28 02:05:54;;;;;;;0.38;0.15;;;10.10;54.00;;;;;;5037554;28;20437;-64
2024/03/28 02:08:39;;;;;;;0.50;0.20;;;10.10;54.10;;;;;;5034249;28;20403;-64
2024/03/28 02:11:24;;;;;;;0.50;0.38;;;10.10;54.10;;;;;;5034844;28;20048;-63
2024/03/28 02:14:09;;;;;;;1.05;0.30;;;10.00;54.00;;;;;;5036287;28;20039;-64
2024/03/28 02:17:03;;;;;;;1.50;0.30;;;10.00;54.10;;;;;;5039777;28;20036;-63
2024/03/28 02:19:48;;;;;;;0.30;0.20;;;10.00;54.10;;;;;;5036545;28;20081;-63
2024/03/28 02:22:33;;;;;;;0.32;0.32;;;9.90;53.90;;;;;;5031862;28;20075;-64
2024/03/28 02:25:20;;;;;;;0.45;0.30;;;9.80;53.80;;;;;;5028165;28;20043;-63
2024/03/28 02:28:05;;;;;;;0.10;0.10;;;9.80;53.80;;;;;;5037410;28;20040;-64
2024/03/28 02:30:51;;;;;;;0.10;0.10;;;9.80;53.90;;;;;;5028480;28;20075;-67
2024/03/28 02:33:37;;;;;;;0.80;0.30;;;9.70;53.70;;;;;;5032625;28;20470;-63
2024/03/28 02:36:22;;;;;;;0.70;0.50;;;9.70;53.70;;;;;;5034326;28;20562;-63
2024/03/28 02:39:07;;;;;;;0.30;0.30;;;9.60;53.60;;;;;;5030941;28;20433;-64
2024/03/28 02:41:53;;;;;;;1.30;0.40;;;9.60;53.70;;;;;;5030119;28;20087;-63
2024/03/28 02:44:38;;;;;;;0.50;0.30;;;9.60;53.70;;;;;;5037321;28;20146;-63
2024/03/28 02:47:22;;;;;;;0.68;0.20;;;9.50;53.50;;;;;;5056034;28;20035;-63
2024/03/28 02:50:08;;;;;;;0.20;0.20;;;9.50;53.50;;;;;;5028044;28;20036;-63
2024/03/28 02:52:52;;;;;;;0.85;0.47;;;9.50;53.60;;;;;;5032005;28;20087;-63
2024/03/28 02:55:37;;;;;;;0.30;0.30;;;9.50;53.60;;;;;;5035106;28;20435;-63
2024/03/28 02:58:22;;;;;;;0.22;0.13;;;9.40;53.50;;;;;;5028997;28;20686;-63
2024/03/28 03:01:08;;;;;;;0.35;0.15;;;9.40;53.50;;;;;;5047777;28;20249;-65
2024/03/28 03:03:56;;;;;;;0.65;0.30;;;9.30;53.30;;;;;;5059619;28;20091;-63
2024/03/28 03:06:41;;;;;;;1.17;0.35;;;9.30;53.40;;;;;;5029575;28;20678;-63
2024/03/28 03:09:26;;;;;;;0.57;0.20;;;9.30;53.40;;;;;;5027021;28;20554;-61
2024/03/28 03:12:10;;;;;;;0.93;0.20;;;9.30;53.50;;;;;;5030492;28;20043;-62
2024/03/28 03:14:55;;;;;;;0.75;0.30;;;9.20;53.30;;;;;;5033562;28;20558;-62
2024/03/28 03:17:39;;;;;;;0.80;0.20;;;9.20;53.40;;;;;;5031870;28;20075;-62
2024/03/28 03:20:24;;;;;;;0.35;0.20;;;9.20;53.40;;;;;;5032048;28;20526;-63
2024/03/28 03:23:10;;;;;;;0.38;0.20;;;9.20;53.50;;;;;;5028987;28;20098;-62
2024/03/28 03:26:01;;;;;;;0.85;0.30;;;9.20;53.50;;;;;;5026999;28;20116;-61
2024/03/28 03:34:53;;;;;;;1.55;0.32;;;9.10;53.40;;;;;;5021021;28;20102;-61
2024/03/28 03:37:38;;;;;;;0.68;0.30;;;9.10;53.40;;;;;;5016416;28;20040;-61
2024/03/28 03:40:23;;;;;;;0.20;0.20;;;9.00;53.20;;;;;;5052551;28;20052;-62
2024/03/28 03:43:08;;;;;;;0.85;0.22;;;9.10;53.50;;;;;;5031298;28;20052;-62
2024/03/28 03:45:53;;;;;;;0.30;0.10;;;9.00;53.30;;;;;;5055480;28;20032;-62
2024/03/28 03:48:38;;;;;;;0.30;0.20;;;9.10;53.50;;;;;;5034300;28;20157;-62
2024/03/28 03:51:23;;;;;;;0.90;0.30;;;9.00;53.40;;;;;;5033695;28;20589;-63
2024/03/28 03:54:08;;;;;;;0.93;0.20;;;9.00;53.40;;;;;;5043021;28;20036;-62
2024/03/28 03:56:52;;;;;;;0.13;0.10;;;9.00;53.40;;;;;;5038577;28;20057;-62
2024/03/28 03:59:39;;;;;;;0.30;0.20;;;9.00;53.40;;;;;;5038006;28;20080;-62
2024/03/28 04:02:23;;;;;;;0.20;0.20;;;9.00;53.50;;;;;;5034895;28;20643;-62
2024/03/28 04:05:08;;;;;;;1.08;0.20;;;8.90;53.30;;;;;;5031292;28;20463;-62
2024/03/28 04:07:53;;;;;;;0.40;0.20;;;8.90;53.30;;;;;;5042213;28;20060;-62
2024/03/28 04:10:37;;;;;;;1.52;0.65;;;8.90;53.40;;;;;;5035238;28;20051;-62
2024/03/28 04:13:22;;;;;;;0.85;0.32;;;8.90;53.40;;;;;;5026888;28;20040;-62
2024/03/28 04:16:08;;;;;;;0.57;0.22;;;8.80;53.20;;;;;;5024893;28;20060;-62
2024/03/28 04:18:53;;;;;;;0.32;0.20;;;8.80;53.30;;;;;;5058789;28;20243;-61
2024/03/28 04:21:37;;;;;;;0.55;0.22;;;8.80;53.30;;;;;;5034272;28;20114;-62
2024/03/28 04:24:22;;;;;;;0.50;0.30;;;8.70;53.20;;;;;;5036512;28;20036;-62
2024/03/28 04:27:06;;;;;;;0.98;0.20;;;8.70;53.20;;;;;;5062339;28;20507;-62
2024/03/28 04:29:51;;;;;;;2.38;0.20;;;8.60;53.10;;;;;;5039354;28;20040;-61
2024/03/28 04:32:36;;;;;;;0.63;0.20;;;8.50;52.90;;;;;;5030999;28;20087;-61
2024/03/28 04:35:21;;;;;;;0.20;0.20;;;8.50;53.00;;;;;;5032771;28;20128;-61
2024/03/28 04:38:06;;;;;;;1.17;0.20;;;8.50;53.10;;;;;;5038661;28;20039;-61
2024/03/28 04:40:50;;;;;;;1.20;0.20;;;8.50;53.10;;;;;;5050494;28;20083;-61
2024/03/28 04:43:36;;;;;;;0.93;0.20;;;8.40;53.00;;;;;;5052305;28;20043;-60
2024/03/28 04:46:21;;;;;;;0.20;0.20;;;8.40;53.10;;;;;;5039020;28;20658;-60
2024/03/28 04:49:06;;;;;;;0.57;0.20;;;8.30;52.90;;;;;;5029324;28;20048;-60
2024/03/28 04:51:51;;;;;;;0.82;0.32;;;8.30;52.90;;;;;;5037968;28;20522;-60
2024/03/28 04:54:36;;;;;;;2.90;0.40;;;8.20;52.80;;;;;;5035954;28;20287;-60
2024/03/28 04:57:23;;;;;;;0.22;0.20;;;8.20;52.90;;;;;;5055260;28;20072;-58
2024/03/28 05:00:17;;;;;;;0.40;0.30;;;8.10;52.80;;;;;;5037702;28;20568;-60
2024/03/28 05:03:02;;;;;;;0.57;0.20;;;8.10;52.80;;;;;;5030331;28;20178;-60
2024/03/28 05:05:47;;;;;;;0.68;0.20;;;8.10;52.80;;;;;;5033465;28;20032;-60
2024/03/28 05:08:32;;;;;;;1.73;0.30;;;8.00;52.70;;;;;;5033109;28;20036;-60
2024/03/28 05:11:17;;;;;;;0.57;0.25;;;8.00;52.80;;;;;;5037594;28;20462;-61
2024/03/28 05:14:01;;;;;;;0.82;0.47;;;7.90;52.60;;;;;;5042100;28;20722;-61
2024/03/28 05:16:47;;;;;;;0.25;0.25;;;7.80;52.50;;;;;;5039411;28;20047;-60
2024/03/28 05:19:37;;;;;;;1.30;0.20;;;7.80;52.50;;;;;;5033899;28;20557;-60
2024/03/28 05:22:21;;;;;;;0.95;0.20;;;7.70;52.40;;;;;;5030663;28;20627;-59
2024/03/28 05:25:07;;;;;;;1.50;0.30;;;7.70;52.50;;;;;;5041034;28;20644;-60
2024/03/28 05:27:51;;;;;;;0.20;0.20;;;7.70;52.50;;;;;;5040517;28;20076;-60
2024/03/28 05:30:37;;;;;;;0.75;0.30;;;7.60;52.40;;;;;;5035910;28;20059;-61
2024/03/28 05:33:21;;;;;;;0.60;0.20;;;7.60;52.50;;;;;;5033594;28;20058;-61
2024/03/28 05:36:07;;;;;;;0.50;0.20;;;7.60;52.50;;;;;;5030250;28;20059;-60
2024/03/28 05:38:52;;;;;;;0.77;0.45;;;7.50;52.40;;;;;;5030709;28;20573;-60
2024/03/28 05:41:36;;;;;;;1.55;0.22;;;7.50;52.40;;;;;;5039554;28;20450;-60
2024/03/28 05:44:24;;;;;;;0.20;0.20;;;7.50;52.50;;;;;;5033576;28;20086;-59
2024/03/28 05:47:09;;;;;;;0.25;0.20;;;7.40;52.30;;;;;;5037075;28;20048;-60
2024/03/28 05:49:53;;;;;;;0.50;0.30;;;7.40;52.40;;;;;;5035557;28;20060;-60
2024/03/28 05:52:38;;;;;;;0.60;0.32;;;7.30;52.30;;;;;;5024696;28;20047;-60
2024/03/28 05:55:24;;;;;;;0.75;0.30;;;7.30;52.30;;;;;;5038485;28;20051;-61
2024/03/28 05:58:09;;;;;;;1.38;0.30;;;7.30;52.40;;;;;;5033810;28;20527;-62
2024/03/28 06:00:57;;;;;;;3.25;0.55;;;7.30;53.00;;;;;;5036374;28;20059;-57
2024/03/28 06:03:41;;;;;;;2.10;0.40;;;7.30;52.50;;;;;;5032672;28;20106;-60
2024/03/28 06:06:26;;;;;;;0.50;0.30;;;7.20;52.30;;;;;;5037375;28;20047;-61
2024/03/28 06:09:11;;;;;;;0.28;0.20;;;7.20;52.30;;;;;;5036180;28;20107;-61
2024/03/28 06:11:57;;;;;;;0.73;0.30;;;7.20;52.40;;;;;;5044853;28;20689;-60
2024/03/28 06:14:41;;;;;;;1.80;0.50;;;7.20;52.40;;;;;;5037189;28;20040;-60
2024/03/28 06:17:26;;;;;;;2.08;0.30;;;7.20;52.50;;;;;;5035804;28;20040;-67
2024/03/28 06:20:14;;;;;;;1.10;0.40;;;7.20;52.40;;;;;;5034448;28;20236;-60
2024/03/28 06:23:05;;;;;;;0.60;0.30;;;7.20;52.50;;;;;;5032430;28;20578;-59
2024/03/28 06:25:50;;;;;;;0.82;0.43;;;7.20;52.50;;;;;;5028866;28;20075;-60
2024/03/28 06:28:35;;;;;;;0.30;0.30;;;7.20;52.50;;;;;;5031444;28;20421;-60
2024/03/28 06:31:21;;;;;;;0.43;0.22;;;7.20;52.50;;;;;;5040659;28;20064;-60
2024/03/28 06:34:06;;;;;;;1.85;0.52;;;7.20;52.80;;;;;;5035717;28;20039;-60
2024/03/28 06:36:52;;;;;;;1.45;0.32;;;7.30;52.70;;;;;;5036506;28;20044;-62
2024/03/28 06:39:37;;;;;;;1.52;0.30;;;7.40;52.70;;;;;;5038785;28;20169;-60
2024/03/28 06:42:21;;;;;;;0.70;0.30;;;7.50;52.70;;;;;;5034054;28;20099;-60
2024/03/28 06:45:06;;;;;;;0.50;0.38;;;7.50;52.50;;;;;;5036831;28;20906;-59
2024/03/28 06:47:51;;;;;;;1.80;0.30;;;7.50;52.30;;;;;;5029233;28;20056;-64
2024/03/28 06:50:36;;;;;;;0.75;0.38;;;7.60;52.40;;;;;;5058079;28;20139;-60
2024/03/28 06:53:21;;;;;;;1.55;0.40;;;7.70;52.50;;;;;;5033694;28;20082;-61
2024/03/28 06:56:05;;;;;;;2.35;0.45;;;7.70;52.50;;;;;;5042198;28;20174;-60
2024/03/28 06:58:51;;;;;;;1.63;0.50;;;7.90;52.90;;;;;;5026611;28;20079;-60
2024/03/28 07:01:36;;;;;;;1.35;0.52;;;8.10;53.10;;;;;;5026794;28;20103;-61
2024/03/28 07:04:20;;;;;;;0.85;0.45;;;8.20;52.90;;;;;;5045054;28;20572;-62
2024/03/28 07:07:06;;;;;;;0.63;0.30;;;8.40;53.00;;;;;;5035511;28;20048;-61
2024/03/28 07:09:50;;;;;;;0.40;0.20;;;8.60;53.00;;;;;;5039330;28;20071;-63
2024/03/28 07:12:37;;;;;;;2.35;0.50;;;8.70;52.90;;;;;;5047654;28;20154;-63
2024/03/28 07:15:21;;;;;;;0.40;0.28;;;8.80;52.80;;;;;;5038795;28;20051;-62
2024/03/28 07:18:07;;;;;;;0.90;0.32;;;8.90;52.80;;;;;;5033094;28;20542;-65
2024/03/28 07:20:51;;;;;;;0.30;0.30;;;8.90;52.60;;;;;;5050358;28;20040;-66
2024/03/28 07:23:41;;;;;;;0.68;0.30;;;9.00;52.80;;;;;;5032064;28;20601;-64
2024/03/28 07:26:30;;;;;;;1.55;0.30;;;9.00;52.70;;;;;;5036963;28;20277;-64
2024/03/28 07:29:18;;;;;;;0.52;0.20;;;9.00;52.80;;;;;;5045574;28;20119;-63
2024/03/28 07:32:02;;;;;;;0.73;0.43;;;9.00;52.80;;;;;;5065000;28;20563;-65
2024/03/28 07:34:47;;;;;;;2.10;0.50;;;9.00;52.90;;;;;;5035928;28;20134;-64
2024/03/28 07:37:31;;;;;;;1.48;0.43;;;9.00;52.90;;;;;;5040792;28;20534;-64
2024/03/28 07:40:16;;;;;;;2.30;0.75;;;9.10;53.10;;;;;;5059291;28;20047;-63
2024/03/28 07:43:00;;;;;;;0.98;0.30;;;9.20;53.20;;;;;;5040995;28;20308;-62
2024/03/28 07:45:47;;;;;;;1.02;0.30;;;9.30;53.30;;;;;;5036816;28;20149;-64
2024/03/28 07:48:36;;;;;;;1.90;0.40;;;9.40;53.40;;;;;;5037882;28;20044;-63
2024/03/28 07:51:21;;;;;;;0.57;0.32;;;9.50;54.00;;;;;;5043023;28;20529;-63
2024/03/28 07:54:06;;;;;;;1.58;0.40;;;9.50;53.40;;;;;;5044489;28;20055;-62
2024/03/28 07:56:51;;;;;;;1.05;0.30;;;9.60;53.50;;;;;;5041040;28;20162;-69
2024/03/28 07:59:35;;;;;;;1.83;0.50;;;9.70;53.60;;;;;;5055452;28;20060;-67
2024/03/28 08:02:20;;;;;;;1.58;0.50;;;9.80;53.70;;;;;;5045174;28;20047;-66
2024/03/28 08:05:05;;;;;;;1.98;0.95;;;10.00;53.90;;;;;;5031011;28;20060;-63
2024/03/28 08:07:50;;;;;;;1.00;0.47;;;10.10;53.80;;;;;;5049743;28;20032;-64
2024/03/28 08:10:35;;;;;;;1.33;0.28;;;10.20;53.80;;;;;;5031409;28;20849;-63
2024/03/28 08:13:20;;;;;;;0.52;0.30;;;10.30;53.90;;;;;;5028167;28;20494;-63
2024/03/28 08:16:08;;;;;;;0.65;0.40;;;10.40;54.00;;;;;;5052070;28;20091;-63
2024/03/28 08:18:53;;;;;;;1.55;0.50;;;10.40;53.90;;;;;;5050164;28;20044;-63
2024/03/28 08:21:38;;;;;;;2.83;0.60;;;10.50;54.10;;;;;;5036920;28;20043;-63
2024/03/28 08:24:30;;;;;;;0.82;0.30;;;10.60;54.20;;;;;;5033216;28;20740;-63
2024/03/28 08:27:16;;;;;;;1.50;0.43;;;10.70;54.40;;;;;;5037673;28;20035;-63
2024/03/28 08:30:01;;;;;;;1.85;0.57;;;10.70;54.30;;;;;;5031461;28;20040;-62
2024/03/28 08:32:47;;;;;;;0.82;0.30;;;10.80;54.40;;;;;;5038416;28;20043;-65
2024/03/28 08:35:39;;;;;;;0.98;0.50;;;10.90;54.50;;;;;;5049255;28;20125;-65
2024/03/28 08:38:25;;;;;;;1.30;0.30;;;11.00;54.60;;;;;;5045534;28;20734;-66
2024/03/28 08:41:10;;;;;;;0.80;0.30;;;11.10;54.70;;;;;;5044735;28;20350;-68
2024/03/28 08:43:55;;;;;;;0.63;0.63;;;11.20;54.80;;;;;;5039996;28;20094;-65
2024/03/28 08:46:42;;;;;;;0.70;0.32;;;11.30;54.90;;;;;;5047105;28;20043;-64
2024/03/28 08:49:28;;;;;;;1.48;0.40;;;11.40;55.00;;;;;;5044905;28;20044;-65
2024/03/28 08:52:13;;;;;;;1.75;0.40;;;11.50;55.10;;;;;;5041968;28;20052;-64
2024/03/28 08:54:58;;;;;;;1.20;0.30;;;11.60;55.20;;;;;;5043690;28;20281;-65
2024/03/28 08:57:44;;;;;;;0.63;0.30;;;11.80;55.70;;;;;;5047250;28;20089;-65
2024/03/28 09:00:31;;;;;;;1.80;0.40;;;11.90;56.10;;;;;;5035501;28;20473;-65
2024/03/28 09:03:16;;;;;;;2.95;0.50;;;12.00;57.10;;;;;;5036057;28;20201;-66
2024/03/28 09:06:04;;;;;;;2.33;0.50;;;12.20;57.00;;;;;;5037506;28;20060;-66
2024/03/28 09:08:50;;;;;;;3.05;0.38;;;12.30;57.20;;;;;;5041803;28;20146;-65
2024/03/28 09:11:34;;;;;;;2.53;0.38;;;12.50;57.60;;;;;;5042382;28;20447;-64
2024/03/28 09:14:20;;;;;;;2.13;0.43;;;12.70;57.90;;;;;;5027099;28;20098;-64
2024/03/28 09:17:05;;;;;;;2.80;1.00;;;12.90;58.20;;;;;;5045855;28;20924;-64
2024/03/28 09:19:52;;;;;;;4.25;2.08;;;13.10;58.50;;;;;;5037275;28;20053;-63
2024/03/28 09:22:37;;;;;;;4.75;2.40;;;13.20;58.60;;;;;;5032655;28;20035;-64
2024/03/28 09:25:21;;;;;;;6.03;2.50;;;13.30;58.60;;;;;;5027688;28;20055;-63
2024/03/28 09:28:07;;;;;;;4.53;2.35;;;13.50;59.00;;;;;;5034790;28;20032;-67
2024/03/28 09:30:52;;;;;;;14.30;5.28;;;13.60;59.10;;;;;;5048163;28;20126;-66
2024/03/28 09:33:38;;;;;;;7.78;4.25;;;13.70;59.30;;;;;;5039809;28;20048;-63
2024/03/28 09:36:23;;;;;;;8.27;4.95;;;13.70;59.30;;;;;;5035349;28;20035;-61
2024/03/28 09:39:11;;;;;;;8.93;5.07;;;13.70;59.40;;;;;;5042235;28;20355;-64
2024/03/28 09:42:00;;;;;;;8.55;4.60;;;13.70;59.50;;;;;;5032651;28;20048;-64
2024/03/28 09:44:46;;;;;;;9.63;4.15;;;13.70;59.70;;;;;;5036834;28;20059;-64
2024/03/28 09:47:35;;;;;;;8.38;4.22;;;13.60;59.60;;;;;;5035552;28;20137;-64
2024/03/28 09:50:23;;;;;;;6.07;3.60;;;13.50;59.60;;;;;;5033569;28;20048;-65
2024/03/28 09:53:10;;;;;;;7.78;3.40;;;13.50;59.80;;;;;;5049139;28;20285;-68
2024/03/28 09:55:55;;;;;;;5.93;3.22;;;13.50;59.90;;;;;;5051270;28;20076;-76
2024/03/28 09:58:40;;;;;;;4.85;2.50;;;13.40;59.80;;;;;;5046169;28;20048;-69
2024/03/28 10:01:28;;;;;;;10.15;2.42;;;13.40;59.90;;;;;;5052885;28;20468;-71
2024/03/28 10:04:19;;;;;;;6.78;2.30;;;13.30;59.90;;;;;;5046333;28;20056;-69
2024/03/28 10:07:05;;;;;;;7.18;2.28;;;13.30;60.10;;;;;;5048211;28;20047;-69
2024/03/28 10:09:50;;;;;;;3.70;1.95;;;13.30;60.20;;;;;;5068876;28;20044;-67
2024/03/28 10:12:35;;;;;;;6.05;2.20;;;13.20;60.20;;;;;;5032601;28;20036;-65
2024/03/28 10:15:19;;;;;;;4.65;2.22;;;13.30;60.50;;;;;;5052055;28;20039;-67
2024/03/28 10:18:10;;;;;;;5.80;2.30;;;13.20;60.50;;;;;;5047851;28;20155;-68
2024/03/28 10:20:59;;;;;;;5.88;3.25;;;13.20;60.70;;;;;;5043024;28;20051;-66
2024/03/28 10:23:44;;;;;;;2.85;1.65;;;13.20;60.80;;;;;;5032638;28;20151;-69
2024/03/28 10:26:30;;;;;;;3.88;1.23;;;13.20;60.80;;;;;;5037220;28;20335;-67
2024/03/28 10:29:18;;;;;;;2.97;1.38;;;13.30;61.00;;;;;;5037373;28;20049;-68
2024/03/28 10:32:07;;;;;;;4.32;1.42;;;13.30;60.90;;;;;;5045402;28;20036;-65
2024/03/28 10:34:53;;;;;;;6.32;1.33;;;13.50;61.10;;;;;;5043923;28;20040;-67
2024/03/28 10:37:38;;;;;;;2.35;1.25;;;13.60;61.10;;;;;;5064679;28;20136;-66
2024/03/28 10:40:24;;;;;;;2.55;1.35;;;13.80;61.20;;;;;;5067298;28;20118;-70
2024/03/28 10:43:15;;;;;;;2.38;1.15;;;13.90;61.10;;;;;;5043224;28;20390;-67
2024/03/28 10:46:03;;;;;;;1.77;1.10;;;14.10;61.10;;;;;;5039919;28;20558;-62
2024/03/28 10:48:50;;;;;;;2.13;0.88;;;14.20;61.00;;;;;;5058039;28;20622;-69
2024/03/28 10:51:49;;;;;;;1.67;0.80;;;14.40;60.90;;;;;;5041924;28;20178;-68
2024/03/28 10:54:43;;;;;;;2.60;0.85;;;14.50;60.90;;;;;;5040287;28;20635;-70
2024/03/28 10:57:28;;;;;;;1.27;0.57;;;14.70;60.90;;;;;;5041840;28;20056;-69
2024/03/28 11:00:14;;;;;;;1.38;0.75;;;14.90;60.80;;;;;;5039409;28;20090;-70
2024/03/28 11:03:01;;;;;;;1.40;0.85;;;15.00;60.70;;;;;;5033931;28;20403;-69
2024/03/28 11:05:47;;;;;;;1.50;0.73;;;15.10;60.70;;;;;;5038533;28;20048;-68
2024/03/28 11:08:33;;;;;;;1.40;0.77;;;15.30;60.70;;;;;;5033149;28;20148;-70
2024/03/28 11:11:21;;;;;;;1.55;0.52;;;15.50;60.80;;;;;;5042720;28;20056;-68
2024/03/28 11:14:06;;;;;;;2.38;0.60;;;15.60;60.50;;;;;;5051671;28;20042;-67
2024/03/28 11:17:01;;;;;;;0.88;0.47;;;15.80;60.50;;;;;;5041336;28;20044;-69
2024/03/28 11:19:46;;;;;;;1.13;0.60;;;15.80;60.20;;;;;;5034854;28;20040;-70
2024/03/28 11:22:31;;;;;;;5.47;0.77;;;15.80;60.10;;;;;;5036753;28;20618;-72
2024/03/28 11:25:30;;;;;;;1.27;0.50;;;15.80;60.00;;;;;;5045483;28;20107;-71
2024/03/28 11:28:15;;;;;;;2.75;0.77;;;15.70;59.80;;;;;;5042287;28;20503;-70
2024/03/28 11:31:02;;;;;;;1.80;0.60;;;15.70;60.00;;;;;;5049952;28;20170;-71
2024/03/28 11:33:46;;;;;;;0.55;0.30;;;15.70;60.00;;;;;;5048812;28;20039;-70
2024/03/28 11:36:33;;;;;;;1.70;0.50;;;15.60;59.90;;;;;;5055900;28;20135;-71
2024/03/28 11:39:18;;;;;;;1.38;0.65;;;15.60;59.80;;;;;;5063713;28;20040;-72
2024/03/28 11:42:03;;;;;;;1.10;0.60;;;15.60;59.80;;;;;;5043262;28;20092;-73
2024/03/28 11:44:48;;;;;;;2.03;0.75;;;15.60;59.80;;;;;;5045863;28;22309;-71
2024/03/28 11:47:34;;;;;;;1.77;0.52;;;15.70;60.00;;;;;;5035932;28;20039;-71
2024/03/28 11:50:18;;;;;;;2.53;0.60;;;15.80;60.00;;;;;;5053597;28;20570;-70
2024/03/28 11:53:05;;;;;;;3.17;0.70;;;16.00;60.20;;;;;;5049849;28;20036;-70
2024/03/28 11:55:53;;;;;;;2.53;1.13;;;16.10;60.10;;;;;;5037354;28;20048;-68
2024/03/28 11:58:39;;;;;;;3.00;0.95;;;16.30;60.00;;;;;;5048414;28;20056;-67
2024/03/28 12:01:24;;;;;;;2.75;0.77;;;16.30;59.70;;;;;;5040666;28;20040;-72
2024/03/28 12:04:09;;;;;;;2.33;0.52;;;16.40;59.80;;;;;;5038652;28;20442;-71
2024/03/28 12:06:54;;;;;;;2.58;0.80;;;16.40;59.70;;;;;;5059624;28;20078;-75
2024/03/28 12:09:38;;;;;;;3.47;0.68;;;16.40;59.70;;;;;;5049708;28;20047;-75
2024/03/28 12:12:25;;;;;;;11.82;2.65;;;16.40;59.80;;;;;;5057959;28;20032;-73
2024/03/28 12:15:10;;;;;;;5.07;1.15;;;16.40;60.00;;;;;;5048062;28;20106;-70
2024/03/28 12:17:58;;;;;;;6.03;1.23;;;16.50;60.40;;;;;;5048325;28;20044;-71
2024/03/28 12:20:43;;;;;;;6.10;1.73;;;16.50;60.50;;;;;;5048051;28;20097;-69
2024/03/28 12:23:30;;;;;;;4.00;1.05;;;16.50;60.60;;;;;;5034939;28;20167;-70
2024/03/28 12:26:18;;;;;;;14.05;1.20;;;16.50;60.70;;;;;;5041784;28;20296;-69
2024/03/28 12:29:03;;;;;;;3.20;1.05;;;16.60;60.90;;;;;;5033561;28;20041;-60
2024/03/28 12:31:48;;;;;;;1.77;0.88;;;16.70;60.90;;;;;;5039766;28;20626;-65
2024/03/28 12:34:33;;;;;;;3.40;1.00;;;16.80;60.90;;;;;;5037911;28;20568;-67
2024/03/28 12:37:17;;;;;;;3.33;0.80;;;16.90;60.70;;;;;;5038237;28;20470;-65
2024/03/28 12:40:09;;;;;;;2.65;1.05;;;17.00;60.60;;;;;;5044702;28;20129;-66
2024/03/28 12:42:55;;;;;;;5.65;1.52;;;17.10;60.50;;;;;;5037728;28;20186;-65
2024/03/28 12:45:40;;;;;;;6.47;1.40;;;17.10;60.30;;;;;;5036340;28;20127;-66
2024/03/28 12:48:24;;;;;;;2.42;0.70;;;17.20;60.30;;;;;;5040886;28;20048;-63
2024/03/28 12:51:12;;;;;;;4.80;0.73;;;17.20;60.10;;;;;;5044012;28;20036;-66
2024/03/28 12:53:58;;;;;;;2.10;0.93;;;17.20;59.90;;;;;;5034193;28;20087;-67
2024/03/28 12:56:43;;;;;;;2.22;0.80;;;17.10;59.70;;;;;;5037921;28;20529;-66
2024/03/28 12:59:27;;;;;;;2.78;0.90;;;17.10;59.70;;;;;;5047144;28;20144;-68
2024/03/28 13:02:12;;;;;;;1.65;0.57;;;17.20;59.80;;;;;;5038558;28;20055;-70
2024/03/28 13:04:57;;;;;;;4.40;0.77;;;17.30;59.80;;;;;;5034334;28;20149;-68
2024/03/28 13:07:44;;;;;;;2.45;0.60;;;17.40;59.80;;;;;;5051160;28;20557;-68
2024/03/28 13:10:28;;;;;;;2.65;0.95;;;17.50;59.70;;;;;;5032151;28;20071;-70
2024/03/28 13:13:14;;;;;;;3.13;0.90;;;17.60;59.70;;;;;;5037014;28;20530;-66
2024/03/28 13:15:58;;;;;;;3.42;0.88;;;17.60;59.50;;;;;;5037542;28;20097;-72
2024/03/28 13:18:43;;;;;;;1.15;0.47;;;17.60;59.40;;;;;;5039171;28;20036;-66
2024/03/28 13:21:30;;;;;;;1.88;0.40;;;17.70;59.40;;;;;;5032259;28;20056;-67
2024/03/28 13:24:14;;;;;;;3.22;0.70;;;17.80;59.40;;;;;;5042317;28;20407;-68
2024/03/28 13:26:59;;;;;;;1.67;0.70;;;17.80;59.10;;;;;;5040351;28;20601;-70
2024/03/28 13:29:44;;;;;;;5.72;1.05;;;17.90;59.10;;;;;;5061248;28;20196;-68
2024/03/28 13:32:29;;;;;;;3.45;0.90;;;17.80;58.70;;;;;;5061559;28;20466;-69
2024/03/28 13:35:14;;;;;;;2.28;0.70;;;17.90;58.80;;;;;;5051773;28;20439;-68
2024/03/28 13:37:58;;;;;;;4.18;0.90;;;17.80;58.50;;;;;;5036625;28;20063;-69
2024/03/28 13:40:46;;;;;;;4.25;1.02;;;17.90;58.70;;;;;;5045295;28;20439;-69
2024/03/28 13:43:31;;;;;;;2.58;1.00;;;17.80;58.50;;;;;;5039513;28;20116;-68
2024/03/28 13:46:16;;;;;;;5.88;1.20;;;17.80;58.50;;;;;;5040745;28;20056;-68
2024/03/28 13:49:01;;;;;;;2.95;0.90;;;17.80;58.40;;;;;;5044572;28;20395;-70
2024/03/28 13:51:46;;;;;;;2.90;0.90;;;17.70;58.20;;;;;;5041961;28;20044;-68
2024/03/28 13:54:32;;;;;;;3.42;1.20;;;17.70;58.30;;;;;;5041945;28;20083;-70
2024/03/28 13:57:16;;;;;;;3.17;1.20;;;17.60;58.20;;;;;;5040618;28;20052;-68
2024/03/28 14:00:01;;;;;;;6.35;1.55;;;17.50;58.20;;;;;;5032221;28;20052;-67
2024/03/28 14:02:56;;;;;;;6.13;1.50;;;17.30;58.00;;;;;;5034629;28;20052;-66
2024/03/28 14:05:41;;;;;;;5.05;1.88;;;17.20;58.00;;;;;;5063404;28;20047;-68
2024/03/28 14:08:26;;;;;;;6.10;1.88;;;17.20;58.20;;;;;;5035173;28;20035;-68
2024/03/28 14:11:17;;;;;;;5.75;1.65;;;17.10;58.10;;;;;;5038270;28;20053;-67
2024/03/28 14:14:03;;;;;;;5.22;2.95;;;17.00;58.00;;;;;;5031049;28;20110;-66
2024/03/28 14:16:48;;;;;;;8.20;1.80;;;16.90;58.00;;;;;;5063168;28;20050;-65
2024/03/28 14:19:33;;;;;;;7.88;2.75;;;16.90;58.10;;;;;;5035400;28;20102;-65
2024/03/28 14:22:18;;;;;;;7.85;2.78;;;16.80;58.10;;;;;;5033587;28;20514;-67
2024/03/28 14:25:04;;;;;;;8.68;3.00;;;16.80;58.20;;;;;;5036749;28;20048;-67
2024/03/28 14:27:48;;;;;;;7.05;2.20;;;16.90;58.30;;;;;;5033891;28;20043;-66
2024/03/28 14:30:33;;;;;;;9.82;2.03;;;17.00;58.30;;;;;;5038218;28;20040;-65
2024/03/28 14:33:18;;;;;;;6.53;1.85;;;17.00;58.10;;;;;;5066907;28;20148;-66